sensor_id;sensor_type;location;lat;lon;timestamp;P1;durP1;ratioP1;P2;durP2;ratioP2
23768;SDS011;12064;50.890;5.424;2023-05-10T00:02:18;2.33;;;1.92;;
23768;SDS011;12064;50.890;5.424;2023-05-10T00:11:08;2.15;;;2.00;;
23768;SDS011;12064;50.890;5.424;2023-05-10T00:20:00;2.73;;;1.90;;
23768;SDS011;12064;50.890;5.424;2023-05-10T00:28:53;2.20;;;1.90;;
23768;SDS011;12064;50.890;5.424;2023-05-10T00:37:43;1.85;;;1.75;;
23768;SDS011;12064;50.890;5.424;2023-05-10T00:46:34;2.22;;;2.00;;
23768;SDS011;12064;50.890;5.424;2023-05-10T00:55:26;2.25;;;2.08;;
23768;SDS011;12064;50.890;5.424;2023-05-10T01:04:19;2.47;;;1.80;;
23768;SDS011;12064;50.890;5.424;2023-05-10T01:13:18;1.80;;;1.70;;
23768;SDS011;12064;50.890;5.424;2023-05-10T01:50:03;2.70;;;1.98;;
23768;SDS011;12064;50.890;5.424;2023-05-10T01:58:56;2.10;;;1.77;;
23768;SDS011;12064;50.890;5.424;2023-05-10T02:07:51;2.10;;;1.75;;
23768;SDS011;12064;50.890;5.424;2023-05-10T02:16:42;1.88;;;1.70;;
23768;SDS011;12064;50.890;5.424;2023-05-10T02:25:34;4.18;;;2.00;;
23768;SDS011;12064;50.890;5.424;2023-05-10T02:34:27;1.98;;;1.88;;
23768;SDS011;12064;50.890;5.424;2023-05-10T02:43:21;2.10;;;1.92;;
23768;SDS011;12064;50.890;5.424;2023-05-10T02:52:16;2.40;;;1.60;;
23768;SDS011;12064;50.890;5.424;2023-05-10T03:01:13;1.98;;;1.73;;
23768;SDS011;12064;50.890;5.424;2023-05-10T03:10:15;2.30;;;1.80;;
23768;SDS011;12064;50.890;5.424;2023-05-10T03:19:17;1.80;;;1.70;;
23768;SDS011;12064;50.890;5.424;2023-05-10T03:28:16;3.20;;;1.95;;
23768;SDS011;12064;50.890;5.424;2023-05-10T03:37:08;1.70;;;1.60;;
23768;SDS011;12064;50.890;5.424;2023-05-10T03:46:03;2.05;;;1.90;;
23768;SDS011;12064;50.890;5.424;2023-05-10T03:54:53;1.92;;;1.83;;
23768;SDS011;12064;50.890;5.424;2023-05-10T04:03:47;2.20;;;1.98;;
23768;SDS011;12064;50.890;5.424;2023-05-10T04:12:38;4.35;;;1.85;;
23768;SDS011;12064;50.890;5.424;2023-05-10T04:21:28;2.43;;;2.23;;
23768;SDS011;12064;50.890;5.424;2023-05-10T04:30:19;3.27;;;2.27;;
23768;SDS011;12064;50.890;5.424;2023-05-10T04:39:10;2.75;;;2.30;;
23768;SDS011;12064;50.890;5.424;2023-05-10T04:48:00;2.87;;;2.67;;
23768;SDS011;12064;50.890;5.424;2023-05-10T04:56:51;3.10;;;2.60;;
23768;SDS011;12064;50.890;5.424;2023-05-10T05:05:41;2.37;;;2.17;;
23768;SDS011;12064;50.890;5.424;2023-05-10T05:14:33;3.08;;;2.30;;
23768;SDS011;12064;50.890;5.424;2023-05-10T05:23:23;2.80;;;2.37;;
23768;SDS011;12064;50.890;5.424;2023-05-10T05:32:14;3.03;;;2.40;;
23768;SDS011;12064;50.890;5.424;2023-05-10T05:41:05;2.75;;;2.50;;
23768;SDS011;12064;50.890;5.424;2023-05-10T05:49:56;2.60;;;2.20;;
23768;SDS011;12064;50.890;5.424;2023-05-10T05:58:46;2.67;;;2.20;;
23768;SDS011;12064;50.890;5.424;2023-05-10T06:07:37;1.92;;;1.83;;
23768;SDS011;12064;50.890;5.424;2023-05-10T06:16:28;2.40;;;2.20;;
23768;SDS011;12064;50.890;5.424;2023-05-10T06:25:18;2.30;;;2.20;;
23768;SDS011;12064;50.890;5.424;2023-05-10T06:34:09;3.35;;;2.40;;
23768;SDS011;12064;50.890;5.424;2023-05-10T06:43:04;2.30;;;2.10;;
23768;SDS011;12064;50.890;5.424;2023-05-10T06:51:55;2.40;;;2.20;;
23768;SDS011;12064;50.890;5.424;2023-05-10T07:00:49;2.90;;;2.40;;
23768;SDS011;12064;50.890;5.424;2023-05-10T07:09:40;2.45;;;2.22;;
23768;SDS011;12064;50.890;5.424;2023-05-10T07:18:31;2.42;;;2.22;;
23768;SDS011;12064;50.890;5.424;2023-05-10T07:27:21;2.80;;;2.60;;
23768;SDS011;12064;50.890;5.424;2023-05-10T07:36:14;2.85;;;2.20;;
23768;SDS011;12064;50.890;5.424;2023-05-10T07:45:05;2.47;;;2.25;;
23768;SDS011;12064;50.890;5.424;2023-05-10T07:53:56;2.50;;;2.30;;
23768;SDS011;12064;50.890;5.424;2023-05-10T08:02:50;2.00;;;1.90;;
23768;SDS011;12064;50.890;5.424;2023-05-10T08:11:40;2.33;;;2.13;;
23768;SDS011;12064;50.890;5.424;2023-05-10T08:20:31;2.27;;;2.17;;
23768;SDS011;12064;50.890;5.424;2023-05-10T08:29:21;2.15;;;2.05;;
23768;SDS011;12064;50.890;5.424;2023-05-10T08:38:12;2.50;;;2.30;;
23768;SDS011;12064;50.890;5.424;2023-05-10T08:47:04;2.30;;;2.10;;
23768;SDS011;12064;50.890;5.424;2023-05-10T08:55:56;2.20;;;2.10;;
23768;SDS011;12064;50.890;5.424;2023-05-10T09:04:51;2.90;;;2.10;;
23768;SDS011;12064;50.890;5.424;2023-05-10T09:13:41;2.38;;;1.95;;
23768;SDS011;12064;50.890;5.424;2023-05-10T09:22:35;2.10;;;2.00;;
23768;SDS011;12064;50.890;5.424;2023-05-10T09:31:47;2.08;;;1.90;;
23768;SDS011;12064;50.890;5.424;2023-05-10T09:40:41;2.20;;;2.10;;
23768;SDS011;12064;50.890;5.424;2023-05-10T09:49:49;2.25;;;1.75;;
23768;SDS011;12064;50.890;5.424;2023-05-10T09:58:41;2.22;;;2.03;;
23768;SDS011;12064;50.890;5.424;2023-05-10T10:07:31;1.90;;;1.80;;
23768;SDS011;12064;50.890;5.424;2023-05-10T10:16:22;2.00;;;1.90;;
23768;SDS011;12064;50.890;5.424;2023-05-10T10:25:15;1.83;;;1.73;;
23768;SDS011;12064;50.890;5.424;2023-05-10T10:34:06;1.80;;;1.70;;
23768;SDS011;12064;50.890;5.424;2023-05-10T11:01:23;2.10;;;2.00;;
23768;SDS011;12064;50.890;5.424;2023-05-10T11:10:13;1.60;;;1.50;;
23768;SDS011;12064;50.890;5.424;2023-05-10T11:19:13;2.00;;;1.90;;
23768;SDS011;12064;50.890;5.424;2023-05-10T11:28:08;1.80;;;1.70;;
23768;SDS011;12064;50.890;5.424;2023-05-10T11:36:59;1.80;;;1.70;;
23768;SDS011;12064;50.890;5.424;2023-05-10T11:45:50;1.80;;;1.70;;
23768;SDS011;12064;50.890;5.424;2023-05-10T11:54:44;1.98;;;1.88;;
23768;SDS011;12064;50.890;5.424;2023-05-10T12:03:41;1.70;;;1.60;;
23768;SDS011;12064;50.890;5.424;2023-05-10T12:12:39;2.97;;;1.90;;
23768;SDS011;12064;50.890;5.424;2023-05-10T12:21:33;1.83;;;1.67;;
23768;SDS011;12064;50.890;5.424;2023-05-10T12:30:34;1.90;;;1.80;;
23768;SDS011;12064;50.890;5.424;2023-05-10T12:39:26;2.65;;;1.73;;
23768;SDS011;12064;50.890;5.424;2023-05-10T12:48:27;2.55;;;1.75;;
23768;SDS011;12064;50.890;5.424;2023-05-10T12:57:19;2.05;;;1.95;;
23768;SDS011;12064;50.890;5.424;2023-05-10T13:06:11;2.08;;;1.63;;
23768;SDS011;12064;50.890;5.424;2023-05-10T13:15:03;1.70;;;1.60;;
23768;SDS011;12064;50.890;5.424;2023-05-10T13:23:54;1.75;;;1.65;;
23768;SDS011;12064;50.890;5.424;2023-05-10T13:32:45;1.58;;;1.48;;
23768;SDS011;12064;50.890;5.424;2023-05-10T13:41:36;1.80;;;1.70;;
23768;SDS011;12064;50.890;5.424;2023-05-10T13:50:27;1.63;;;1.50;;
23768;SDS011;12064;50.890;5.424;2023-05-10T13:59:17;1.67;;;1.58;;
23768;SDS011;12064;50.890;5.424;2023-05-10T14:08:08;1.53;;;1.50;;
23768;SDS011;12064;50.890;5.424;2023-05-10T14:16:59;1.65;;;1.55;;
23768;SDS011;12064;50.890;5.424;2023-05-10T14:25:53;1.55;;;1.45;;
23768;SDS011;12064;50.890;5.424;2023-05-10T14:34:44;1.50;;;1.40;;
23768;SDS011;12064;50.890;5.424;2023-05-10T14:43:35;1.50;;;1.38;;
23768;SDS011;12064;50.890;5.424;2023-05-10T14:52:27;1.50;;;1.40;;
23768;SDS011;12064;50.890;5.424;2023-05-10T15:01:18;1.58;;;1.48;;
23768;SDS011;12064;50.890;5.424;2023-05-10T15:10:09;1.60;;;1.50;;
23768;SDS011;12064;50.890;5.424;2023-05-10T15:19:01;2.05;;;1.45;;
23768;SDS011;12064;50.890;5.424;2023-05-10T15:27:51;1.87;;;1.30;;
23768;SDS011;12064;50.890;5.424;2023-05-10T15:36:42;3.17;;;1.30;;
23768;SDS011;12064;50.890;5.424;2023-05-10T15:45:33;1.50;;;0.90;;
23768;SDS011;12064;50.890;5.424;2023-05-10T15:54:24;1.10;;;1.00;;
23768;SDS011;12064;50.890;5.424;2023-05-10T16:03:18;1.48;;;1.20;;
23768;SDS011;12064;50.890;5.424;2023-05-10T16:12:09;2.00;;;1.30;;
23768;SDS011;12064;50.890;5.424;2023-05-10T16:21:00;1.60;;;1.50;;
23768;SDS011;12064;50.890;5.424;2023-05-10T16:29:51;2.10;;;1.73;;
23768;SDS011;12064;50.890;5.424;2023-05-10T16:38:41;2.23;;;1.40;;
23768;SDS011;12064;50.890;5.424;2023-05-10T16:47:32;1.70;;;1.33;;
23768;SDS011;12064;50.890;5.424;2023-05-10T16:56:23;2.80;;;1.35;;
23768;SDS011;12064;50.890;5.424;2023-05-10T17:05:14;1.73;;;1.10;;
23768;SDS011;12064;50.890;5.424;2023-05-10T17:14:04;1.40;;;1.30;;
23768;SDS011;12064;50.890;5.424;2023-05-10T17:22:55;1.47;;;1.37;;
23768;SDS011;12064;50.890;5.424;2023-05-10T17:31:46;1.33;;;1.20;;
23768;SDS011;12064;50.890;5.424;2023-05-10T17:40:38;1.30;;;1.20;;
23768;SDS011;12064;50.890;5.424;2023-05-10T17:49:30;2.10;;;1.30;;
23768;SDS011;12064;50.890;5.424;2023-05-10T17:58:20;1.80;;;1.40;;
23768;SDS011;12064;50.890;5.424;2023-05-10T18:07:11;1.33;;;1.23;;
23768;SDS011;12064;50.890;5.424;2023-05-10T18:16:02;1.30;;;1.20;;
23768;SDS011;12064;50.890;5.424;2023-05-10T18:24:57;1.90;;;1.40;;
23768;SDS011;12064;50.890;5.424;2023-05-10T18:33:48;1.40;;;1.30;;
23768;SDS011;12064;50.890;5.424;2023-05-10T18:42:40;1.50;;;1.40;;
23768;SDS011;12064;50.890;5.424;2023-05-10T18:51:31;2.15;;;2.00;;
23768;SDS011;12064;50.890;5.424;2023-05-10T19:00:21;1.70;;;1.60;;
23768;SDS011;12064;50.890;5.424;2023-05-10T19:09:12;2.30;;;1.73;;
23768;SDS011;12064;50.890;5.424;2023-05-10T19:18:03;1.75;;;1.63;;
23768;SDS011;12064;50.890;5.424;2023-05-10T19:26:54;2.67;;;1.67;;
23768;SDS011;12064;50.890;5.424;2023-05-10T19:35:50;2.72;;;1.70;;
23768;SDS011;12064;50.890;5.424;2023-05-10T19:44:41;1.70;;;1.60;;
23768;SDS011;12064;50.890;5.424;2023-05-10T19:53:32;1.90;;;1.73;;
23768;SDS011;12064;50.890;5.424;2023-05-10T20:02:23;1.65;;;1.40;;
23768;SDS011;12064;50.890;5.424;2023-05-10T20:11:13;2.05;;;1.80;;
23768;SDS011;12064;50.890;5.424;2023-05-10T20:20:05;2.00;;;1.60;;
23768;SDS011;12064;50.890;5.424;2023-05-10T20:28:56;1.98;;;1.60;;
23768;SDS011;12064;50.890;5.424;2023-05-10T20:37:46;1.43;;;1.33;;
23768;SDS011;12064;50.890;5.424;2023-05-10T20:46:37;1.50;;;1.40;;
23768;SDS011;12064;50.890;5.424;2023-05-10T20:55:28;1.42;;;1.35;;
23768;SDS011;12064;50.890;5.424;2023-05-10T21:04:18;1.60;;;1.43;;
23768;SDS011;12064;50.890;5.424;2023-05-10T21:13:10;1.65;;;1.55;;
23768;SDS011;12064;50.890;5.424;2023-05-10T21:22:01;2.07;;;1.50;;
23768;SDS011;12064;50.890;5.424;2023-05-10T21:30:52;1.45;;;1.35;;
23768;SDS011;12064;50.890;5.424;2023-05-10T21:39:43;1.53;;;1.43;;
23768;SDS011;12064;50.890;5.424;2023-05-10T21:48:34;1.90;;;1.37;;
23768;SDS011;12064;50.890;5.424;2023-05-10T21:57:25;1.48;;;1.38;;
23768;SDS011;12064;50.890;5.424;2023-05-10T22:06:15;1.98;;;1.40;;
23768;SDS011;12064;50.890;5.424;2023-05-10T22:15:06;1.57;;;1.47;;
23768;SDS011;12064;50.890;5.424;2023-05-10T22:24:00;1.67;;;1.58;;
23768;SDS011;12064;50.890;5.424;2023-05-10T22:32:51;1.80;;;1.33;;
23768;SDS011;12064;50.890;5.424;2023-05-10T22:41:41;1.60;;;1.38;;
23768;SDS011;12064;50.890;5.424;2023-05-10T22:50:32;1.40;;;1.30;;
23768;SDS011;12064;50.890;5.424;2023-05-10T22:59:23;1.50;;;1.40;;
23768;SDS011;12064;50.890;5.424;2023-05-10T23:08:13;1.50;;;1.40;;
23768;SDS011;12064;50.890;5.424;2023-05-10T23:17:04;1.40;;;1.30;;
23768;SDS011;12064;50.890;5.424;2023-05-10T23:25:55;1.73;;;1.38;;
23768;SDS011;12064;50.890;5.424;2023-05-10T23:34:45;1.47;;;1.37;;
23768;SDS011;12064;50.890;5.424;2023-05-10T23:43:36;1.50;;;1.40;;
23768;SDS011;12064;50.890;5.424;2023-05-10T23:52:28;1.45;;;1.35;;
